sensor_id;sensor_type;location;lat;lon;timestamp;temperature;humidity
13638;DHT22;6892;50.916;4.356;2022-08-21T00:01:10;16.20;99.90
13638;DHT22;6892;50.916;4.356;2022-08-21T00:03:37;16.20;99.90
13638;DHT22;6892;50.916;4.356;2022-08-21T00:06:05;16.20;99.90
13638;DHT22;6892;50.916;4.356;2022-08-21T00:08:32;16.10;99.90
13638;DHT22;6892;50.916;4.356;2022-08-21T00:10:58;16.20;99.90
13638;DHT22;6892;50.916;4.356;2022-08-21T00:13:27;16.20;99.90
13638;DHT22;6892;50.916;4.356;2022-08-21T00:15:53;16.20;99.90
13638;DHT22;6892;50.916;4.356;2022-08-21T00:18:20;16.20;99.90
13638;DHT22;6892;50.916;4.356;2022-08-21T00:20:47;16.20;99.90
13638;DHT22;6892;50.916;4.356;2022-08-21T00:23:14;16.20;99.90
13638;DHT22;6892;50.916;4.356;2022-08-21T00:25:41;16.10;99.90
13638;DHT22;6892;50.916;4.356;2022-08-21T00:28:08;16.00;99.90
13638;DHT22;6892;50.916;4.356;2022-08-21T00:30:37;16.00;99.90
13638;DHT22;6892;50.916;4.356;2022-08-21T00:33:05;16.00;99.90
13638;DHT22;6892;50.916;4.356;2022-08-21T00:35:34;16.00;99.90
13638;DHT22;6892;50.916;4.356;2022-08-21T00:38:02;16.00;99.90
13638;DHT22;6892;50.916;4.356;2022-08-21T00:40:31;16.00;99.90
13638;DHT22;6892;50.916;4.356;2022-08-21T00:42:59;16.00;99.90
13638;DHT22;6892;50.916;4.356;2022-08-21T00:45:27;15.90;99.90
13638;DHT22;6892;50.916;4.356;2022-08-21T00:47:56;15.90;99.90
13638;DHT22;6892;50.916;4.356;2022-08-21T00:50:24;15.90;99.90
13638;DHT22;6892;50.916;4.356;2022-08-21T00:52:52;15.90;99.90
13638;DHT22;6892;50.916;4.356;2022-08-21T00:55:19;15.80;99.90
13638;DHT22;6892;50.916;4.356;2022-08-21T00:57:47;15.80;99.90
13638;DHT22;6892;50.916;4.356;2022-08-21T01:00:17;15.70;99.90
13638;DHT22;6892;50.916;4.356;2022-08-21T01:02:44;15.70;99.90
13638;DHT22;6892;50.916;4.356;2022-08-21T01:05:12;15.60;99.90
13638;DHT22;6892;50.916;4.356;2022-08-21T01:07:39;15.60;99.90
13638;DHT22;6892;50.916;4.356;2022-08-21T01:10:07;15.60;99.90
13638;DHT22;6892;50.916;4.356;2022-08-21T01:12:34;15.50;99.90
13638;DHT22;6892;50.916;4.356;2022-08-21T01:15:02;15.50;99.90
13638;DHT22;6892;50.916;4.356;2022-08-21T01:17:30;15.50;99.90
13638;DHT22;6892;50.916;4.356;2022-08-21T01:19:57;15.40;99.90
13638;DHT22;6892;50.916;4.356;2022-08-21T01:22:25;15.30;99.90
13638;DHT22;6892;50.916;4.356;2022-08-21T01:24:52;15.40;99.90
13638;DHT22;6892;50.916;4.356;2022-08-21T01:27:19;15.40;99.90
13638;DHT22;6892;50.916;4.356;2022-08-21T01:29:47;15.30;99.90
13638;DHT22;6892;50.916;4.356;2022-08-21T01:32:18;15.20;99.90
13638;DHT22;6892;50.916;4.356;2022-08-21T01:34:46;15.30;99.90
13638;DHT22;6892;50.916;4.356;2022-08-21T01:37:14;15.20;99.90
13638;DHT22;6892;50.916;4.356;2022-08-21T01:39:42;15.30;99.90
13638;DHT22;6892;50.916;4.356;2022-08-21T01:42:10;15.20;99.90
13638;DHT22;6892;50.916;4.356;2022-08-21T01:44:37;15.20;99.90
13638;DHT22;6892;50.916;4.356;2022-08-21T01:47:05;15.20;99.90
13638;DHT22;6892;50.916;4.356;2022-08-21T01:49:33;15.10;99.90
13638;DHT22;6892;50.916;4.356;2022-08-21T01:52:00;15.10;99.90
13638;DHT22;6892;50.916;4.356;2022-08-21T01:54:26;15.00;99.90
13638;DHT22;6892;50.916;4.356;2022-08-21T01:56:55;14.90;99.90
13638;DHT22;6892;50.916;4.356;2022-08-21T01:59:22;14.90;99.90
13638;DHT22;6892;50.916;4.356;2022-08-21T02:01:49;14.80;99.90
13638;DHT22;6892;50.916;4.356;2022-08-21T02:04:16;14.70;99.90
13638;DHT22;6892;50.916;4.356;2022-08-21T02:06:43;14.60;99.90
13638;DHT22;6892;50.916;4.356;2022-08-21T02:09:11;14.60;99.90
13638;DHT22;6892;50.916;4.356;2022-08-21T02:11:38;14.60;99.90
13638;DHT22;6892;50.916;4.356;2022-08-21T02:14:07;14.50;99.90
13638;DHT22;6892;50.916;4.356;2022-08-21T02:16:34;14.50;99.90
13638;DHT22;6892;50.916;4.356;2022-08-21T02:19:01;14.50;99.90
13638;DHT22;6892;50.916;4.356;2022-08-21T02:21:28;14.50;99.90
13638;DHT22;6892;50.916;4.356;2022-08-21T02:23:54;14.50;99.90
13638;DHT22;6892;50.916;4.356;2022-08-21T02:26:21;14.40;99.90
13638;DHT22;6892;50.916;4.356;2022-08-21T02:28:48;14.40;99.90
13638;DHT22;6892;50.916;4.356;2022-08-21T02:31:17;14.40;99.90
13638;DHT22;6892;50.916;4.356;2022-08-21T02:33:45;14.40;99.90
13638;DHT22;6892;50.916;4.356;2022-08-21T02:36:12;14.30;99.90
13638;DHT22;6892;50.916;4.356;2022-08-21T02:38:39;14.30;99.90
13638;DHT22;6892;50.916;4.356;2022-08-21T02:41:07;14.30;99.90
13638;DHT22;6892;50.916;4.356;2022-08-21T02:43:34;14.20;99.90
13638;DHT22;6892;50.916;4.356;2022-08-21T02:46:02;14.30;99.90
13638;DHT22;6892;50.916;4.356;2022-08-21T02:48:31;14.30;99.90
13638;DHT22;6892;50.916;4.356;2022-08-21T02:51:00;14.30;99.90
13638;DHT22;6892;50.916;4.356;2022-08-21T02:53:27;14.40;99.90
13638;DHT22;6892;50.916;4.356;2022-08-21T02:55:56;14.40;99.90
13638;DHT22;6892;50.916;4.356;2022-08-21T02:58:24;14.40;99.90
13638;DHT22;6892;50.916;4.356;2022-08-21T03:00:51;14.40;99.90
13638;DHT22;6892;50.916;4.356;2022-08-21T03:03:18;14.40;99.90
13638;DHT22;6892;50.916;4.356;2022-08-21T03:05:47;14.40;99.90
13638;DHT22;6892;50.916;4.356;2022-08-21T03:08:15;14.40;99.90
13638;DHT22;6892;50.916;4.356;2022-08-21T03:10:43;14.30;99.90
13638;DHT22;6892;50.916;4.356;2022-08-21T03:13:10;14.40;99.90
13638;DHT22;6892;50.916;4.356;2022-08-21T03:15:37;14.40;99.90
13638;DHT22;6892;50.916;4.356;2022-08-21T03:18:05;14.30;99.90
13638;DHT22;6892;50.916;4.356;2022-08-21T03:20:32;14.30;99.90
13638;DHT22;6892;50.916;4.356;2022-08-21T03:23:01;14.30;99.90
13638;DHT22;6892;50.916;4.356;2022-08-21T03:25:29;14.40;99.90
13638;DHT22;6892;50.916;4.356;2022-08-21T03:27:57;14.30;99.90
13638;DHT22;6892;50.916;4.356;2022-08-21T03:30:24;14.30;99.90
13638;DHT22;6892;50.916;4.356;2022-08-21T03:32:51;14.30;99.90
13638;DHT22;6892;50.916;4.356;2022-08-21T03:35:18;14.20;99.90
13638;DHT22;6892;50.916;4.356;2022-08-21T03:37:45;14.20;99.90
13638;DHT22;6892;50.916;4.356;2022-08-21T03:40:14;14.20;99.90
13638;DHT22;6892;50.916;4.356;2022-08-21T03:42:42;14.20;99.90
13638;DHT22;6892;50.916;4.356;2022-08-21T03:45:10;14.30;99.90
13638;DHT22;6892;50.916;4.356;2022-08-21T03:47:37;14.20;99.90
13638;DHT22;6892;50.916;4.356;2022-08-21T03:50:04;14.20;99.90
13638;DHT22;6892;50.916;4.356;2022-08-21T03:52:31;14.20;99.90
13638;DHT22;6892;50.916;4.356;2022-08-21T03:54:58;14.20;99.90
13638;DHT22;6892;50.916;4.356;2022-08-21T03:57:26;14.20;99.90
13638;DHT22;6892;50.916;4.356;2022-08-21T03:59:53;14.20;99.90
13638;DHT22;6892;50.916;4.356;2022-08-21T04:02:19;14.10;99.90
13638;DHT22;6892;50.916;4.356;2022-08-21T04:04:47;14.10;99.90
13638;DHT22;6892;50.916;4.356;2022-08-21T04:07:14;14.20;99.90
13638;DHT22;6892;50.916;4.356;2022-08-21T04:09:41;14.20;99.90
13638;DHT22;6892;50.916;4.356;2022-08-21T04:12:07;14.10;99.90
13638;DHT22;6892;50.916;4.356;2022-08-21T04:14:36;14.10;99.90
13638;DHT22;6892;50.916;4.356;2022-08-21T04:17:02;14.10;99.90
13638;DHT22;6892;50.916;4.356;2022-08-21T04:19:29;14.10;99.90
13638;DHT22;6892;50.916;4.356;2022-08-21T04:21:56;14.10;99.90
13638;DHT22;6892;50.916;4.356;2022-08-21T04:24:23;14.10;99.90
13638;DHT22;6892;50.916;4.356;2022-08-21T04:26:50;14.10;99.90
13638;DHT22;6892;50.916;4.356;2022-08-21T04:29:17;14.10;99.90
13638;DHT22;6892;50.916;4.356;2022-08-21T04:31:46;14.10;99.90
13638;DHT22;6892;50.916;4.356;2022-08-21T04:34:13;14.20;99.90
13638;DHT22;6892;50.916;4.356;2022-08-21T04:36:40;14.20;99.90
13638;DHT22;6892;50.916;4.356;2022-08-21T04:39:06;14.10;99.90
13638;DHT22;6892;50.916;4.356;2022-08-21T04:41:33;14.10;99.90
13638;DHT22;6892;50.916;4.356;2022-08-21T04:44:01;14.10;99.90
13638;DHT22;6892;50.916;4.356;2022-08-21T04:46:28;14.10;99.90
13638;DHT22;6892;50.916;4.356;2022-08-21T04:48:56;14.10;99.90
13638;DHT22;6892;50.916;4.356;2022-08-21T04:51:24;14.20;99.90
13638;DHT22;6892;50.916;4.356;2022-08-21T04:53:52;14.20;99.90
13638;DHT22;6892;50.916;4.356;2022-08-21T04:56:20;14.20;99.90
13638;DHT22;6892;50.916;4.356;2022-08-21T04:58:48;14.20;99.90
13638;DHT22;6892;50.916;4.356;2022-08-21T05:01:17;14.20;99.90
13638;DHT22;6892;50.916;4.356;2022-08-21T05:03:45;14.20;99.90
13638;DHT22;6892;50.916;4.356;2022-08-21T05:06:13;14.30;99.90
13638;DHT22;6892;50.916;4.356;2022-08-21T05:08:42;14.30;99.90
13638;DHT22;6892;50.916;4.356;2022-08-21T05:11:11;14.30;99.90
13638;DHT22;6892;50.916;4.356;2022-08-21T05:13:38;14.40;99.90
13638;DHT22;6892;50.916;4.356;2022-08-21T05:16:06;14.50;99.90
13638;DHT22;6892;50.916;4.356;2022-08-21T05:18:32;14.50;99.90
13638;DHT22;6892;50.916;4.356;2022-08-21T05:20:59;14.60;99.90
13638;DHT22;6892;50.916;4.356;2022-08-21T05:23:27;14.70;99.90
13638;DHT22;6892;50.916;4.356;2022-08-21T05:25:54;14.80;99.90
13638;DHT22;6892;50.916;4.356;2022-08-21T05:28:21;14.90;99.90
13638;DHT22;6892;50.916;4.356;2022-08-21T05:30:48;15.00;99.90
13638;DHT22;6892;50.916;4.356;2022-08-21T05:33:15;15.10;99.90
13638;DHT22;6892;50.916;4.356;2022-08-21T05:35:42;15.20;99.90
13638;DHT22;6892;50.916;4.356;2022-08-21T05:38:08;15.20;99.90
13638;DHT22;6892;50.916;4.356;2022-08-21T05:40:36;15.30;99.90
13638;DHT22;6892;50.916;4.356;2022-08-21T05:43:03;15.40;99.90
13638;DHT22;6892;50.916;4.356;2022-08-21T05:45:30;15.40;99.90
13638;DHT22;6892;50.916;4.356;2022-08-21T05:47:57;15.50;99.90
13638;DHT22;6892;50.916;4.356;2022-08-21T05:50:24;15.60;99.90
13638;DHT22;6892;50.916;4.356;2022-08-21T05:52:51;15.70;99.90
13638;DHT22;6892;50.916;4.356;2022-08-21T05:55:18;15.70;99.90
13638;DHT22;6892;50.916;4.356;2022-08-21T05:57:46;15.80;99.90
13638;DHT22;6892;50.916;4.356;2022-08-21T06:00:13;16.00;99.90
13638;DHT22;6892;50.916;4.356;2022-08-21T06:02:40;16.10;99.90
13638;DHT22;6892;50.916;4.356;2022-08-21T06:05:07;16.10;99.90
13638;DHT22;6892;50.916;4.356;2022-08-21T06:07:34;16.20;99.90
13638;DHT22;6892;50.916;4.356;2022-08-21T06:10:00;16.30;99.90
13638;DHT22;6892;50.916;4.356;2022-08-21T06:12:27;16.40;99.90
13638;DHT22;6892;50.916;4.356;2022-08-21T06:14:55;16.50;99.90
13638;DHT22;6892;50.916;4.356;2022-08-21T06:17:22;16.50;99.90
13638;DHT22;6892;50.916;4.356;2022-08-21T06:19:50;16.60;99.90
13638;DHT22;6892;50.916;4.356;2022-08-21T06:22:17;16.60;99.90
13638;DHT22;6892;50.916;4.356;2022-08-21T06:24:44;16.70;99.90
13638;DHT22;6892;50.916;4.356;2022-08-21T06:27:11;16.80;99.90
13638;DHT22;6892;50.916;4.356;2022-08-21T06:29:38;16.80;99.90
13638;DHT22;6892;50.916;4.356;2022-08-21T06:32:06;16.90;99.90
13638;DHT22;6892;50.916;4.356;2022-08-21T06:34:35;16.90;99.90
13638;DHT22;6892;50.916;4.356;2022-08-21T06:37:02;17.00;99.90
13638;DHT22;6892;50.916;4.356;2022-08-21T06:39:29;17.00;99.90
13638;DHT22;6892;50.916;4.356;2022-08-21T06:41:56;17.00;99.90
13638;DHT22;6892;50.916;4.356;2022-08-21T06:44:23;17.10;99.90
13638;DHT22;6892;50.916;4.356;2022-08-21T06:46:49;17.20;99.90
13638;DHT22;6892;50.916;4.356;2022-08-21T06:49:18;17.20;99.90
13638;DHT22;6892;50.916;4.356;2022-08-21T06:51:44;17.20;99.90
13638;DHT22;6892;50.916;4.356;2022-08-21T06:54:11;17.30;99.90
13638;DHT22;6892;50.916;4.356;2022-08-21T06:56:38;17.40;99.90
13638;DHT22;6892;50.916;4.356;2022-08-21T06:59:05;17.50;99.90
13638;DHT22;6892;50.916;4.356;2022-08-21T07:01:32;17.60;99.90
13638;DHT22;6892;50.916;4.356;2022-08-21T07:03:58;17.70;99.90
13638;DHT22;6892;50.916;4.356;2022-08-21T07:06:26;17.80;99.90
13638;DHT22;6892;50.916;4.356;2022-08-21T07:08:53;18.00;99.90
13638;DHT22;6892;50.916;4.356;2022-08-21T07:11:21;18.10;99.90
13638;DHT22;6892;50.916;4.356;2022-08-21T07:13:48;18.20;99.90
13638;DHT22;6892;50.916;4.356;2022-08-21T07:16:17;18.20;99.90
13638;DHT22;6892;50.916;4.356;2022-08-21T07:18:44;18.40;99.90
13638;DHT22;6892;50.916;4.356;2022-08-21T07:21:11;18.50;99.90
13638;DHT22;6892;50.916;4.356;2022-08-21T07:23:40;18.80;99.90
13638;DHT22;6892;50.916;4.356;2022-08-21T07:26:07;19.20;99.90
13638;DHT22;6892;50.916;4.356;2022-08-21T07:28:34;19.60;55.60
13638;DHT22;6892;50.916;4.356;2022-08-21T07:31:01;19.90;22.50
13638;DHT22;6892;50.916;4.356;2022-08-21T07:33:29;20.00;1.00
13638;DHT22;6892;50.916;4.356;2022-08-21T07:35:56;20.20;1.00
13638;DHT22;6892;50.916;4.356;2022-08-21T07:38:23;20.10;1.00
13638;DHT22;6892;50.916;4.356;2022-08-21T07:40:52;20.00;1.00
13638;DHT22;6892;50.916;4.356;2022-08-21T07:43:19;20.20;1.00
13638;DHT22;6892;50.916;4.356;2022-08-21T07:45:47;21.00;1.00
13638;DHT22;6892;50.916;4.356;2022-08-21T07:48:14;21.90;1.00
13638;DHT22;6892;50.916;4.356;2022-08-21T07:50:42;22.80;1.00
13638;DHT22;6892;50.916;4.356;2022-08-21T07:53:09;23.30;1.00
13638;DHT22;6892;50.916;4.356;2022-08-21T07:55:36;23.30;1.00
13638;DHT22;6892;50.916;4.356;2022-08-21T07:58:04;23.10;1.00
13638;DHT22;6892;50.916;4.356;2022-08-21T08:00:32;22.80;1.00
13638;DHT22;6892;50.916;4.356;2022-08-21T08:02:59;22.70;1.00
13638;DHT22;6892;50.916;4.356;2022-08-21T08:05:29;22.80;1.00
13638;DHT22;6892;50.916;4.356;2022-08-21T08:08:02;22.80;1.00
13638;DHT22;6892;50.916;4.356;2022-08-21T08:10:29;22.70;1.00
13638;DHT22;6892;50.916;4.356;2022-08-21T08:12:56;22.50;1.00
13638;DHT22;6892;50.916;4.356;2022-08-21T08:15:25;22.50;1.00
13638;DHT22;6892;50.916;4.356;2022-08-21T08:17:52;22.40;1.00
13638;DHT22;6892;50.916;4.356;2022-08-21T08:20:20;22.40;1.00
13638;DHT22;6892;50.916;4.356;2022-08-21T08:22:48;22.20;1.00
13638;DHT22;6892;50.916;4.356;2022-08-21T08:25:15;22.00;1.00
13638;DHT22;6892;50.916;4.356;2022-08-21T08:27:42;22.00;1.00
13638;DHT22;6892;50.916;4.356;2022-08-21T08:30:10;22.30;1.00
13638;DHT22;6892;50.916;4.356;2022-08-21T08:32:39;22.70;1.00
13638;DHT22;6892;50.916;4.356;2022-08-21T08:35:06;23.00;1.00
13638;DHT22;6892;50.916;4.356;2022-08-21T08:37:34;23.30;99.90
13638;DHT22;6892;50.916;4.356;2022-08-21T08:40:03;23.90;99.90
13638;DHT22;6892;50.916;4.356;2022-08-21T08:42:31;24.10;99.90
13638;DHT22;6892;50.916;4.356;2022-08-21T08:44:59;24.30;99.90
13638;DHT22;6892;50.916;4.356;2022-08-21T08:47:27;24.20;99.90
13638;DHT22;6892;50.916;4.356;2022-08-21T08:49:58;24.30;99.90
13638;DHT22;6892;50.916;4.356;2022-08-21T08:52:28;24.50;99.90
13638;DHT22;6892;50.916;4.356;2022-08-21T08:54:57;24.00;99.90
13638;DHT22;6892;50.916;4.356;2022-08-21T08:57:26;23.60;99.90
13638;DHT22;6892;50.916;4.356;2022-08-21T08:59:53;23.40;99.90
13638;DHT22;6892;50.916;4.356;2022-08-21T09:02:22;23.50;99.90
13638;DHT22;6892;50.916;4.356;2022-08-21T09:04:50;23.70;99.90
13638;DHT22;6892;50.916;4.356;2022-08-21T09:07:20;23.80;99.90
13638;DHT22;6892;50.916;4.356;2022-08-21T09:09:57;23.90;99.90
13638;DHT22;6892;50.916;4.356;2022-08-21T09:12:31;24.00;99.90
13638;DHT22;6892;50.916;4.356;2022-08-21T09:15:02;23.80;99.90
13638;DHT22;6892;50.916;4.356;2022-08-21T09:17:37;23.80;99.90
13638;DHT22;6892;50.916;4.356;2022-08-21T09:20:12;23.90;99.90
13638;DHT22;6892;50.916;4.356;2022-08-21T09:22:51;23.70;99.90
13638;DHT22;6892;50.916;4.356;2022-08-21T09:25:32;23.50;99.90
13638;DHT22;6892;50.916;4.356;2022-08-21T09:28:07;23.70;99.90
13638;DHT22;6892;50.916;4.356;2022-08-21T09:30:36;23.50;99.90
13638;DHT22;6892;50.916;4.356;2022-08-21T09:33:06;23.80;99.90
13638;DHT22;6892;50.916;4.356;2022-08-21T09:35:33;24.00;99.90
13638;DHT22;6892;50.916;4.356;2022-08-21T09:38:04;24.20;99.90
13638;DHT22;6892;50.916;4.356;2022-08-21T09:40:35;24.30;99.90
13638;DHT22;6892;50.916;4.356;2022-08-21T09:43:04;24.10;99.90
13638;DHT22;6892;50.916;4.356;2022-08-21T09:45:46;23.70;99.90
13638;DHT22;6892;50.916;4.356;2022-08-21T09:48:18;23.60;99.90
13638;DHT22;6892;50.916;4.356;2022-08-21T09:50:45;23.30;99.90
13638;DHT22;6892;50.916;4.356;2022-08-21T09:53:17;23.10;99.90
13638;DHT22;6892;50.916;4.356;2022-08-21T09:55:48;23.00;99.90
13638;DHT22;6892;50.916;4.356;2022-08-21T09:58:35;23.10;99.90
13638;DHT22;6892;50.916;4.356;2022-08-21T10:01:03;23.10;99.90
13638;DHT22;6892;50.916;4.356;2022-08-21T10:03:31;22.80;99.90
13638;DHT22;6892;50.916;4.356;2022-08-21T10:05:58;22.70;99.90
13638;DHT22;6892;50.916;4.356;2022-08-21T10:08:28;22.70;99.90
13638;DHT22;6892;50.916;4.356;2022-08-21T10:10:56;23.00;99.90
13638;DHT22;6892;50.916;4.356;2022-08-21T10:13:27;23.30;99.90
13638;DHT22;6892;50.916;4.356;2022-08-21T10:16:04;23.70;99.90
13638;DHT22;6892;50.916;4.356;2022-08-21T10:18:36;23.90;99.90
13638;DHT22;6892;50.916;4.356;2022-08-21T10:21:08;23.90;99.90
13638;DHT22;6892;50.916;4.356;2022-08-21T10:23:42;23.80;99.90
13638;DHT22;6892;50.916;4.356;2022-08-21T10:26:18;23.60;99.90
13638;DHT22;6892;50.916;4.356;2022-08-21T10:28:53;23.50;99.90
13638;DHT22;6892;50.916;4.356;2022-08-21T10:31:27;23.70;99.90
13638;DHT22;6892;50.916;4.356;2022-08-21T10:34:03;24.10;99.90
13638;DHT22;6892;50.916;4.356;2022-08-21T10:36:37;24.20;99.90
13638;DHT22;6892;50.916;4.356;2022-08-21T10:39:11;24.10;99.90
13638;DHT22;6892;50.916;4.356;2022-08-21T10:41:47;24.10;99.90
13638;DHT22;6892;50.916;4.356;2022-08-21T10:44:28;24.10;99.90
13638;DHT22;6892;50.916;4.356;2022-08-21T10:47:06;24.20;99.90
13638;DHT22;6892;50.916;4.356;2022-08-21T10:49:38;24.80;99.90
13638;DHT22;6892;50.916;4.356;2022-08-21T10:55:02;25.30;99.90
13638;DHT22;6892;50.916;4.356;2022-08-21T10:57:57;25.00;99.90
13638;DHT22;6892;50.916;4.356;2022-08-21T11:00:48;24.60;99.90
13638;DHT22;6892;50.916;4.356;2022-08-21T11:03:27;25.10;99.90
13638;DHT22;6892;50.916;4.356;2022-08-21T11:06:04;25.30;99.90
13638;DHT22;6892;50.916;4.356;2022-08-21T11:08:37;25.20;99.90
13638;DHT22;6892;50.916;4.356;2022-08-21T11:11:15;25.40;99.90
13638;DHT22;6892;50.916;4.356;2022-08-21T11:13:52;25.50;99.90
13638;DHT22;6892;50.916;4.356;2022-08-21T11:16:33;25.50;99.90
13638;DHT22;6892;50.916;4.356;2022-08-21T11:19:20;25.50;99.90
13638;DHT22;6892;50.916;4.356;2022-08-21T11:21:55;25.70;99.90
13638;DHT22;6892;50.916;4.356;2022-08-21T11:24:29;25.30;99.90
13638;DHT22;6892;50.916;4.356;2022-08-21T11:27:07;25.20;99.90
13638;DHT22;6892;50.916;4.356;2022-08-21T11:29:37;25.50;99.90
13638;DHT22;6892;50.916;4.356;2022-08-21T11:34:52;25.60;99.90
13638;DHT22;6892;50.916;4.356;2022-08-21T11:37:37;24.70;99.90
13638;DHT22;6892;50.916;4.356;2022-08-21T11:40:09;24.40;99.90
13638;DHT22;6892;50.916;4.356;2022-08-21T11:42:42;24.90;99.90
13638;DHT22;6892;50.916;4.356;2022-08-21T11:45:17;25.20;99.90
13638;DHT22;6892;50.916;4.356;2022-08-21T11:47:52;25.30;99.90
13638;DHT22;6892;50.916;4.356;2022-08-21T11:50:21;25.10;99.90
13638;DHT22;6892;50.916;4.356;2022-08-21T11:52:53;25.00;99.90
13638;DHT22;6892;50.916;4.356;2022-08-21T11:55:25;24.70;99.90
13638;DHT22;6892;50.916;4.356;2022-08-21T11:57:56;24.40;99.90
13638;DHT22;6892;50.916;4.356;2022-08-21T12:00:26;24.40;99.90
13638;DHT22;6892;50.916;4.356;2022-08-21T12:03:06;24.80;99.90
13638;DHT22;6892;50.916;4.356;2022-08-21T12:05:39;25.10;99.90
13638;DHT22;6892;50.916;4.356;2022-08-21T12:08:11;25.40;99.90
13638;DHT22;6892;50.916;4.356;2022-08-21T12:10:39;25.70;99.90
13638;DHT22;6892;50.916;4.356;2022-08-21T12:13:10;26.10;99.90
13638;DHT22;6892;50.916;4.356;2022-08-21T12:15:40;26.50;99.90
13638;DHT22;6892;50.916;4.356;2022-08-21T12:18:19;26.30;99.90
13638;DHT22;6892;50.916;4.356;2022-08-21T12:20:59;26.30;99.90
13638;DHT22;6892;50.916;4.356;2022-08-21T12:23:29;26.10;99.90
13638;DHT22;6892;50.916;4.356;2022-08-21T12:26:00;26.00;99.90
13638;DHT22;6892;50.916;4.356;2022-08-21T12:28:33;25.70;99.90
13638;DHT22;6892;50.916;4.356;2022-08-21T12:31:15;25.70;99.90
13638;DHT22;6892;50.916;4.356;2022-08-21T12:33:47;25.90;99.90
13638;DHT22;6892;50.916;4.356;2022-08-21T12:36:17;25.90;99.90
13638;DHT22;6892;50.916;4.356;2022-08-21T12:38:47;25.70;99.90
13638;DHT22;6892;50.916;4.356;2022-08-21T12:41:18;26.10;99.90
13638;DHT22;6892;50.916;4.356;2022-08-21T12:43:56;26.60;99.90
13638;DHT22;6892;50.916;4.356;2022-08-21T12:46:37;27.00;99.90
13638;DHT22;6892;50.916;4.356;2022-08-21T12:49:13;27.30;99.90
13638;DHT22;6892;50.916;4.356;2022-08-21T12:51:54;27.00;99.90
13638;DHT22;6892;50.916;4.356;2022-08-21T12:54:40;26.50;99.90
13638;DHT22;6892;50.916;4.356;2022-08-21T12:57:18;26.00;99.90
13638;DHT22;6892;50.916;4.356;2022-08-21T12:59:50;25.60;99.90
13638;DHT22;6892;50.916;4.356;2022-08-21T13:02:19;25.40;99.90
13638;DHT22;6892;50.916;4.356;2022-08-21T13:04:50;25.20;99.90
13638;DHT22;6892;50.916;4.356;2022-08-21T13:07:22;25.00;99.90
13638;DHT22;6892;50.916;4.356;2022-08-21T13:09:52;25.00;99.90
13638;DHT22;6892;50.916;4.356;2022-08-21T13:12:29;25.10;99.90
13638;DHT22;6892;50.916;4.356;2022-08-21T13:14:59;25.30;99.90
13638;DHT22;6892;50.916;4.356;2022-08-21T13:17:29;25.10;99.90
13638;DHT22;6892;50.916;4.356;2022-08-21T13:20:00;25.20;99.90
13638;DHT22;6892;50.916;4.356;2022-08-21T13:22:30;24.80;99.90
13638;DHT22;6892;50.916;4.356;2022-08-21T13:25:02;24.90;99.90
13638;DHT22;6892;50.916;4.356;2022-08-21T13:27:30;24.70;99.90
13638;DHT22;6892;50.916;4.356;2022-08-21T13:30:10;24.60;99.90
13638;DHT22;6892;50.916;4.356;2022-08-21T13:32:39;24.60;99.90
13638;DHT22;6892;50.916;4.356;2022-08-21T13:35:10;24.70;99.90
13638;DHT22;6892;50.916;4.356;2022-08-21T13:37:38;24.90;99.90
13638;DHT22;6892;50.916;4.356;2022-08-21T13:40:07;24.80;99.90
13638;DHT22;6892;50.916;4.356;2022-08-21T13:42:34;24.80;99.90
13638;DHT22;6892;50.916;4.356;2022-08-21T13:45:00;25.00;99.90
13638;DHT22;6892;50.916;4.356;2022-08-21T13:47:29;24.70;99.90
13638;DHT22;6892;50.916;4.356;2022-08-21T13:49:55;24.90;99.90
13638;DHT22;6892;50.916;4.356;2022-08-21T13:52:23;25.40;99.90
13638;DHT22;6892;50.916;4.356;2022-08-21T13:54:52;25.60;99.90
13638;DHT22;6892;50.916;4.356;2022-08-21T13:57:26;25.80;99.90
13638;DHT22;6892;50.916;4.356;2022-08-21T13:59:53;25.90;99.90
13638;DHT22;6892;50.916;4.356;2022-08-21T14:02:45;25.80;99.90
13638;DHT22;6892;50.916;4.356;2022-08-21T14:05:15;25.70;99.90
13638;DHT22;6892;50.916;4.356;2022-08-21T14:07:49;25.80;99.90
13638;DHT22;6892;50.916;4.356;2022-08-21T14:10:21;25.70;99.90
13638;DHT22;6892;50.916;4.356;2022-08-21T14:12:54;25.70;99.90
13638;DHT22;6892;50.916;4.356;2022-08-21T14:15:32;25.70;99.90
13638;DHT22;6892;50.916;4.356;2022-08-21T14:18:18;25.50;99.90
13638;DHT22;6892;50.916;4.356;2022-08-21T14:21:07;25.30;99.90
13638;DHT22;6892;50.916;4.356;2022-08-21T14:23:39;25.00;99.90
13638;DHT22;6892;50.916;4.356;2022-08-21T14:26:06;24.90;99.90
13638;DHT22;6892;50.916;4.356;2022-08-21T14:28:34;24.80;99.90
13638;DHT22;6892;50.916;4.356;2022-08-21T14:31:16;24.80;99.90
13638;DHT22;6892;50.916;4.356;2022-08-21T14:33:45;24.90;99.90
13638;DHT22;6892;50.916;4.356;2022-08-21T14:36:16;25.10;99.90
13638;DHT22;6892;50.916;4.356;2022-08-21T14:38:52;25.20;99.90
13638;DHT22;6892;50.916;4.356;2022-08-21T14:41:23;25.30;99.90
13638;DHT22;6892;50.916;4.356;2022-08-21T14:43:54;25.40;99.90
13638;DHT22;6892;50.916;4.356;2022-08-21T14:46:28;25.40;99.90
13638;DHT22;6892;50.916;4.356;2022-08-21T14:49:00;25.30;99.90
13638;DHT22;6892;50.916;4.356;2022-08-21T14:51:41;25.00;99.90
13638;DHT22;6892;50.916;4.356;2022-08-21T14:54:14;24.80;99.90
13638;DHT22;6892;50.916;4.356;2022-08-21T14:56:52;25.00;99.90
13638;DHT22;6892;50.916;4.356;2022-08-21T14:59:20;25.40;99.90
13638;DHT22;6892;50.916;4.356;2022-08-21T15:01:49;25.70;99.90
13638;DHT22;6892;50.916;4.356;2022-08-21T15:04:24;25.70;99.90
13638;DHT22;6892;50.916;4.356;2022-08-21T15:06:56;25.60;99.90
13638;DHT22;6892;50.916;4.356;2022-08-21T15:09:24;25.60;99.90
13638;DHT22;6892;50.916;4.356;2022-08-21T15:12:08;25.60;99.90
13638;DHT22;6892;50.916;4.356;2022-08-21T15:14:42;25.30;99.90
13638;DHT22;6892;50.916;4.356;2022-08-21T15:17:09;25.40;99.90
13638;DHT22;6892;50.916;4.356;2022-08-21T15:19:38;25.50;99.90
13638;DHT22;6892;50.916;4.356;2022-08-21T15:22:06;25.40;99.90
13638;DHT22;6892;50.916;4.356;2022-08-21T15:24:33;25.40;99.90
13638;DHT22;6892;50.916;4.356;2022-08-21T15:27:05;25.20;99.90
13638;DHT22;6892;50.916;4.356;2022-08-21T15:29:40;25.10;99.90
13638;DHT22;6892;50.916;4.356;2022-08-21T15:32:20;25.10;99.90
13638;DHT22;6892;50.916;4.356;2022-08-21T15:34:49;25.00;99.90
13638;DHT22;6892;50.916;4.356;2022-08-21T15:37:21;24.60;99.90
13638;DHT22;6892;50.916;4.356;2022-08-21T15:40:08;24.70;99.90
13638;DHT22;6892;50.916;4.356;2022-08-21T15:42:38;24.80;99.90
13638;DHT22;6892;50.916;4.356;2022-08-21T15:45:11;24.90;99.90
13638;DHT22;6892;50.916;4.356;2022-08-21T15:47:38;25.10;99.90
13638;DHT22;6892;50.916;4.356;2022-08-21T15:50:24;24.90;99.90
13638;DHT22;6892;50.916;4.356;2022-08-21T15:52:58;24.70;99.90
13638;DHT22;6892;50.916;4.356;2022-08-21T15:55:32;24.70;99.90
13638;DHT22;6892;50.916;4.356;2022-08-21T15:58:05;24.80;99.90
13638;DHT22;6892;50.916;4.356;2022-08-21T16:00:36;24.90;99.90
13638;DHT22;6892;50.916;4.356;2022-08-21T16:03:18;24.70;99.90
13638;DHT22;6892;50.916;4.356;2022-08-21T16:05:52;24.50;99.90
13638;DHT22;6892;50.916;4.356;2022-08-21T16:08:25;24.50;99.90
13638;DHT22;6892;50.916;4.356;2022-08-21T16:10:55;24.50;99.90